ADDS METAR Data INFO
IDs: Format: Raw Decoded Include TAF

Data at: 2338 UTC 25 Feb 2018

KART 252256Z AUTO 22017G24KT 10SM CLR 07/01 A2984 RMK AO2 SLP107 T00720006
KART 252156Z AUTO 22015G22KT 10SM CLR 09/05 A2980 RMK AO2 SLP095 T00940050
KART 252056Z AUTO 20012G23KT 10SM CLR 11/06 A2978 RMK AO2 SLP086 60000 T01060056 51022
KART 251956Z AUTO 19010G18KT 10SM CLR 11/06 A2976 RMK AO2 SLP079 T01060061
KART 251856Z AUTO 20013G26KT 10SM CLR 09/06 A2975 RMK AO2 PK WND 16028/1814 RAE01 SLP078 P0000 T00940056
KART 251756Z AUTO 17019G32KT 10SM -RA BKN075 BKN095 08/06 A2971 RMK AO2 PK WND 15036/1701 RAE09B52 PRESFR SLP065 P0000 60014 T00830056 10083 20044 50011
KART 251707Z AUTO 17015G36KT 10SM -RA FEW026 FEW036 OVC070 07/06 A2975 RMK AO2 PK WND 15036/1701 P0000 T00720056
KART 251656Z AUTO 17017G28KT 2SM -RA BR SCT026 BKN041 OVC070 07/06 A2973 RMK AO2 PK WND 16031/1607 RAE06B30 SLP072 P0001 T00720056
KART 251556Z AUTO 16018G28KT 3SM -RA BR OVC040 07/04 A2969 RMK AO2 PK WND 17035/1538 SLP059 P0000 T00670044
KART 251540Z AUTO 17019G35KT 7SM -RA OVC040 07/04 A2968 RMK AO2 PK WND 17035/1538 P0000 T00670044
KART 251525Z AUTO 17012G29KT 2SM -RA BR SCT038 OVC047 06/04 A2969 RMK AO2 PK WND 15030/1457 P0000 T00610044
KART 251456Z AUTO 16018G31KT 6SM -RA OVC041 06/03 A2968 RMK AO2 PK WND 16031/1449 RAB48 PRESFR SLP055 P0000 60013 T00610033 58036
KART 251356Z AUTO VRB06G18KT 10SM FEW028 OVC038 06/03 A2974 RMK AO2 PK WND 15027/1317 RAE45 SLP074 P0009 T00560033
KART 251330Z AUTO 14014G24KT 100V180 3SM -RA BR OVC033 06/04 A2973 RMK AO2 PK WND 15027/1317 P0009 T00610039
KART 251318Z AUTO 16016G27KT 1 1/2SM +RA BR SCT029 OVC038 06/04 A2976 RMK AO2 PK WND 15027/1317 PRESRR P0007 T00560039
KART 251256Z AUTO 14010G21KT 7SM -RA OVC039 06/03 A2974 RMK AO2 SLP075 P0004 T00610033
KART 251203Z AUTO 13009G16KT 4SM -RA BR SCT028 OVC038 04/03 A2978 RMK AO2 P0000 T00440028
KART 251156Z AUTO 13008G17KT 4SM -RA BR BKN028 OVC036 05/03 A2979 RMK AO2 SLP090 P0002 60005 70005 T00500028 10050 21006 58072
KART 251056Z AUTO 11006KT 9SM -RA OVC037 03/02 A2988 RMK AO2 PRESFR SLP120 P0002 T00330017
KART 250956Z AUTO 06004KT 5SM -RA BR BKN036 BKN045 OVC060 01/00 A2996 RMK AO2 UPE0858B20E40RAB0858E20B40 SLP148 P0001 T00110000
KART 250856Z AUTO 06010KT 9SM UP FEW060 BKN080 OVC095 01/M01 A3000 RMK AO2 UPB52 PRESFR SLP164 P0000 60000 T00111011 58057
KART 250756Z AUTO 06009KT 10SM BKN110 01/M02 A3006 RMK AO2 SLP183 T00061017
KART 250656Z AUTO 06009KT 10SM OVC110 00/M02 A3012 RMK AO2 PRESFR SLP204 T00001022
KART 250556Z AUTO 07006KT 10SM CLR M01/M02 A3017 RMK AO2 SLP222 T10061022 10011 21028 56018
KART 250456Z AUTO 06008KT 10SM CLR M01/M03 A3018 RMK AO2 SLP224 T10111028 400561028
KART 250356Z AUTO 07004KT 10SM CLR M02/M03 A3021 RMK AO2 SLP235 T10221033
KART 250256Z AUTO 07005KT 10SM CLR M02/M03 A3023 RMK AO2 SLP240 T10171033 50000
KART 250156Z AUTO 08004KT 10SM CLR M02/M03 A3025 RMK AO2 SLP249 T10171033
KART 250056Z AUTO 07007KT 10SM CLR M01/M03 A3025 RMK AO2 SLP248 T10061028
KART 242356Z AUTO 05011KT 10SM FEW035 01/M02 A3023 RMK AO2 SLP240 T00111022 10050 20011 53005
KART 242256Z AUTO 04006KT 10SM OVC034 03/M01 A3021 RMK AO2 SLP235 T00281006
KART 242204Z AUTO 03009KT 10SM FEW028 OVC036 04/M01 A3021 RMK AO2 T00391006
KART 242156Z AUTO 03009KT 10SM BKN028 OVC036 04/00 A3021 RMK AO2 SLP233 T00390000
KART 242145Z AUTO 04007KT 10SM FEW025 SCT029 OVC036 04/M01 A3021 RMK AO2 T00441006
KART 242103Z AUTO 05006KT 10SM BKN029 OVC035 04/00 A3022 RMK AO2 T00440000
KART 242056Z AUTO 05007KT 10SM OVC032 04/00 A3022 RMK AO2 SLP237 T00440000 53003
KART 242026Z AUTO 02006KT 10SM BKN027 OVC034 04/00 A3021 RMK AO2 T00440000
KART 242011Z AUTO 02007KT 10SM FEW024 OVC031 04/01 A3021 RMK AO2 T00440006
KART 241956Z AUTO 02008KT 10SM BKN024 OVC033 04/00 A3020 RMK AO2 SLP231 T00440000
KART 241856Z AUTO 00000KT 10SM BKN036 04/M01 A3020 RMK AO2 SLP230 T00441006
KART 241756Z AUTO 25005KT 10SM CLR 05/00 A3021 RMK AO2 SLP234 T00500000 10056 20022 58004
KART 241656Z AUTO 25007KT 10SM CLR 05/01 A3023 RMK AO2 SLP241 T00500006
KART 241556Z AUTO 25009KT 10SM OVC041 04/01 A3024 RMK AO2 SLP244 T00390006
KART 241456Z AUTO 27009KT 10SM OVC039 03/00 A3023 RMK AO2 SLP239 T00330000 51012
KART 241356Z AUTO 26007KT 10SM OVC037 03/00 A3022 RMK AO2 SLP236 T00280000
KART 241256Z AUTO 26009KT 10SM OVC035 02/01 A3021 RMK AO2 SLP234 T00220006
KART 241156Z AUTO 26010KT 10SM OVC037 02/00 A3019 RMK AO2 SLP226 70007 T00220000 10039 20017 51021